Deerfield, New Jersey
Current Conditions -  °F | °C
As of 11:54 AM on Thursday 18 Dec 2014 (Local Time) from KMIV Reporting Station
Clear Clear  
Wind Chill: 31°   Ceiling: Unl
Heat Index: 40°   Visibility: 10mi
Dew Point: 22°   Wind: 16mph
Humidity: 49%   Direction: 300°WNW
Pressure: 30.06"   Gusts: 28mph
Location:  39.5314°N, 75.2331°W
Report Text: KMIV 181654Z AUTO 30014G24KT 10SM CLR 04/M06 A3006 RMK AO2 SLP178 T00441056
Loading
Personal Weather Stations






























Interactive Weather Map New forecast layout! Learn more

10-Day Weather Forecast

Advertisements
Track Severe Weather on mobile